createdAt,value
2018-10-05T00:00:42.001Z,22.81
2018-10-05T00:03:08.660Z,22.84
2018-10-05T00:05:37.488Z,22.84
2018-10-05T00:08:01.968Z,22.77
2018-10-05T00:10:28.603Z,22.76
2018-10-05T00:12:56.678Z,22.79
2018-10-05T00:15:23.459Z,22.75
2018-10-05T00:17:48.596Z,22.75
2018-10-05T00:20:15.280Z,22.72
2018-10-05T00:22:42.000Z,22.70
2018-10-05T00:25:11.200Z,22.71
2018-10-05T00:27:38.248Z,22.71
2018-10-05T00:30:04.884Z,22.71
2018-10-05T00:32:31.721Z,22.68
2018-10-05T00:34:58.363Z,22.67
2018-10-05T00:37:25.007Z,22.66
2018-10-05T00:39:51.664Z,22.66
2018-10-05T00:42:18.290Z,22.64
2018-10-05T00:44:44.956Z,22.64
2018-10-05T00:47:11.594Z,22.59
2018-10-05T00:49:38.291Z,22.66
2018-10-05T00:52:06.237Z,22.59
2018-10-05T00:54:31.532Z,22.60
2018-10-05T00:56:58.179Z,22.56
2018-10-05T00:59:26.040Z,22.60
2018-10-05T01:01:51.485Z,22.55
2018-10-05T01:04:18.106Z,22.53
2018-10-05T01:06:46.166Z,22.54
2018-10-05T01:09:11.551Z,22.55
2018-10-05T01:11:38.205Z,22.53
2018-10-05T01:14:04.859Z,22.48
2018-10-05T01:16:31.500Z,22.51
2018-10-05T01:19:00.081Z,22.50
2018-10-05T01:21:25.101Z,22.46
2018-10-05T01:23:53.114Z,22.51
2018-10-05T01:26:20.056Z,22.47
2018-10-05T01:28:45.090Z,22.47
2018-10-05T01:31:11.802Z,22.46
2018-10-05T01:33:38.458Z,22.48
2018-10-05T01:36:05.095Z,22.44
2018-10-05T01:38:31.775Z,22.44
2018-10-05T01:40:58.383Z,22.39
2018-10-05T01:43:25.038Z,22.42
2018-10-05T01:45:51.748Z,22.42
2018-10-05T01:48:18.460Z,22.42
2018-10-05T01:50:45.203Z,22.38
2018-10-05T01:53:13.243Z,22.37
2018-10-05T01:55:38.500Z,22.37
2018-10-05T01:58:05.154Z,22.33
2018-10-05T02:00:31.811Z,22.34
2018-10-05T02:02:58.453Z,22.33
2018-10-05T02:05:28.038Z,22.31
2018-10-05T02:07:54.679Z,22.27
2018-10-05T02:10:23.536Z,22.31
2018-10-05T02:12:47.981Z,22.26
2018-10-05T02:15:14.621Z,22.28
2018-10-05T02:17:41.305Z,22.27
2018-10-05T02:20:10.804Z,22.24
2018-10-05T02:22:37.501Z,22.23
2018-10-05T02:25:04.226Z,22.26
2018-10-05T02:27:30.947Z,22.29
2018-10-05T02:29:57.535Z,22.24
2018-10-05T02:32:24.187Z,22.21
2018-10-05T02:34:50.876Z,22.20
2018-10-05T02:37:17.517Z,22.23
2018-10-05T02:39:44.182Z,22.21
2018-10-05T02:42:10.828Z,22.22
2018-10-05T02:44:37.479Z,22.21
2018-10-05T02:47:04.144Z,22.20
2018-10-05T02:49:30.793Z,22.21
2018-10-05T02:51:57.474Z,22.19
2018-10-05T02:54:24.110Z,22.13
2018-10-05T02:56:50.757Z,22.18
2018-10-05T02:59:17.453Z,22.14
2018-10-05T03:01:44.114Z,22.16
2018-10-05T03:04:10.772Z,22.13
2018-10-05T03:06:37.429Z,22.10
2018-10-05T03:09:04.065Z,22.14
2018-10-05T03:11:30.941Z,22.11
2018-10-05T03:13:57.596Z,21.89
2018-10-05T03:16:24.254Z,21.43
2018-10-05T03:18:50.929Z,21.35
2018-10-05T03:21:17.545Z,21.21
2018-10-05T03:23:44.314Z,21.43
2018-10-05T03:26:10.958Z,21.29
2018-10-05T03:28:37.596Z,21.32
2018-10-05T03:31:04.213Z,21.13
2018-10-05T03:33:30.852Z,21.19
2018-10-05T03:35:57.503Z,21.06
2018-10-05T03:38:26.061Z,21.13
2018-10-05T03:40:50.853Z,21.18
2018-10-05T03:43:17.559Z,21.22
2018-10-05T03:45:44.233Z,21.36
2018-10-05T03:48:11.037Z,21.38
2018-10-05T03:50:37.675Z,21.40
2018-10-05T03:53:04.316Z,21.57
2018-10-05T03:55:30.964Z,21.66
2018-10-05T03:57:57.652Z,21.74
2018-10-05T04:00:24.612Z,21.78
2018-10-05T04:02:52.278Z,21.91
2018-10-05T04:05:20.293Z,21.88
2018-10-05T04:07:45.620Z,21.89
2018-10-05T04:10:12.247Z,21.87
2018-10-05T04:12:38.899Z,21.92
2018-10-05T04:15:05.594Z,21.94
2018-10-05T04:17:32.330Z,21.80
2018-10-05T04:20:00.324Z,21.80
2018-10-05T04:22:25.642Z,21.82
2018-10-05T04:24:52.309Z,21.91
2018-10-05T04:27:19.156Z,21.86
2018-10-05T04:29:45.750Z,21.72
2018-10-05T04:32:15.030Z,21.75
2018-10-05T04:34:41.647Z,21.74
2018-10-05T04:37:08.307Z,21.65
2018-10-05T04:39:35.042Z,21.63
2018-10-05T04:42:01.691Z,21.71
2018-10-05T04:44:28.376Z,21.71
2018-10-05T04:46:55.010Z,21.79
2018-10-05T04:49:21.763Z,21.80
2018-10-05T04:51:48.347Z,21.82
2018-10-05T04:54:15.041Z,21.88
2018-10-05T04:56:41.767Z,21.88
2018-10-05T04:59:08.417Z,21.95
2018-10-05T05:01:35.055Z,21.97
2018-10-05T05:04:01.748Z,22.02
2018-10-05T05:06:28.436Z,22.16
2018-10-05T05:08:55.117Z,22.29
2018-10-05T05:11:21.799Z,22.30
2018-10-05T05:13:48.438Z,22.36
2018-10-05T05:16:15.127Z,22.46
2018-10-05T05:18:41.822Z,22.59
2018-10-05T05:21:08.447Z,22.57
2018-10-05T05:23:35.086Z,22.58
2018-10-05T05:26:01.768Z,22.65
2018-10-05T05:28:28.480Z,22.71
2018-10-05T05:30:55.128Z,22.82
2018-10-05T05:33:21.833Z,22.95
2018-10-05T05:35:48.677Z,22.93
2018-10-05T05:38:15.339Z,22.89
2018-10-05T05:40:41.981Z,22.98
2018-10-05T05:43:08.670Z,23.20
2018-10-05T05:45:35.359Z,23.29
2018-10-05T05:48:02.007Z,23.23
2018-10-05T05:50:30.076Z,23.27
2018-10-05T05:52:55.442Z,23.27
2018-10-05T05:55:22.145Z,23.31
2018-10-05T05:57:48.853Z,23.35
2018-10-05T06:00:15.661Z,23.40
2018-10-05T06:02:45.153Z,23.48
2018-10-05T06:05:11.824Z,23.51
2018-10-05T06:07:38.442Z,23.55
2018-10-05T06:10:05.104Z,23.62
2018-10-05T06:12:31.772Z,23.62
2018-10-05T06:14:58.515Z,23.67
2018-10-05T06:17:25.213Z,23.76
2018-10-05T06:19:52.073Z,23.78
2018-10-05T06:22:19.357Z,23.80
2018-10-05T06:24:45.782Z,23.91
2018-10-05T06:27:12.542Z,23.85
2018-10-05T06:29:39.352Z,23.98
2018-10-05T06:32:06.169Z,24.02
2018-10-05T06:34:34.742Z,24.05
2018-10-05T06:36:59.457Z,24.14
2018-10-05T06:39:27.177Z,24.11
2018-10-05T06:41:53.862Z,24.13
2018-10-05T06:44:20.635Z,24.17
2018-10-05T06:46:47.281Z,24.18
2018-10-05T06:49:14.973Z,24.16
2018-10-05T06:51:40.682Z,24.21
2018-10-05T06:54:08.568Z,24.27
2018-10-05T06:56:34.144Z,24.28
2018-10-05T06:59:00.817Z,24.31
2018-10-05T07:01:27.639Z,24.29
2018-10-05T07:03:54.314Z,24.29
2018-10-05T07:06:20.975Z,24.24
2018-10-05T07:08:47.619Z,24.29
2018-10-05T07:11:14.304Z,24.32
2018-10-05T07:13:40.966Z,24.38
2018-10-05T07:16:08.661Z,24.40
2018-10-05T07:18:35.349Z,24.45
2018-10-05T07:21:02.037Z,24.53
2018-10-05T07:23:28.912Z,24.41
2018-10-05T07:25:58.475Z,24.40
2018-10-05T07:28:25.271Z,24.39
2018-10-05T07:30:51.846Z,24.45
2018-10-05T07:33:20.313Z,24.50
2018-10-05T07:35:47.025Z,24.51
2018-10-05T07:38:13.840Z,24.54
2018-10-05T07:40:41.801Z,24.50
2018-10-05T07:43:07.326Z,24.58
2018-10-05T07:45:33.943Z,24.55
2018-10-05T07:48:00.737Z,24.57
2018-10-05T07:50:27.412Z,24.64
2018-10-05T07:52:54.090Z,24.55
2018-10-05T07:55:20.820Z,24.60
2018-10-05T07:57:47.567Z,24.59
2018-10-05T08:00:14.175Z,24.61
2018-10-05T08:02:40.848Z,24.61
2018-10-05T08:05:07.505Z,24.59
2018-10-05T08:07:34.218Z,24.64
2018-10-05T08:10:00.890Z,24.52
2018-10-05T08:12:27.626Z,24.51
2018-10-05T08:14:54.455Z,24.59
2018-10-05T08:17:21.177Z,24.55
2018-10-05T08:19:47.908Z,24.62
2018-10-05T08:22:14.573Z,24.63
2018-10-05T08:24:41.303Z,24.59
2018-10-05T08:27:07.972Z,24.58
2018-10-05T08:29:34.656Z,24.58
2018-10-05T08:32:01.343Z,24.59
2018-10-05T08:34:28.102Z,24.53
2018-10-05T08:36:54.853Z,24.51
2018-10-05T08:39:21.435Z,24.50
2018-10-05T08:41:48.161Z,24.52
2018-10-05T08:44:14.810Z,24.51
2018-10-05T08:46:41.464Z,24.52
2018-10-05T08:49:08.223Z,24.55
2018-10-05T08:51:34.971Z,24.53
2018-10-05T08:54:01.684Z,24.56
2018-10-05T08:56:28.393Z,24.58
2018-10-05T08:58:55.090Z,24.55
2018-10-05T09:01:21.777Z,24.66
2018-10-05T09:03:48.582Z,24.50
2018-10-05T09:06:15.336Z,24.44
2018-10-05T09:08:42.001Z,24.43
2018-10-05T09:11:08.800Z,24.54
2018-10-05T09:13:35.492Z,24.61
2018-10-05T09:16:02.291Z,24.52
2018-10-05T09:18:28.962Z,24.43
2018-10-05T09:20:55.612Z,24.38
2018-10-05T09:23:22.500Z,24.41
2018-10-05T09:25:49.296Z,24.41
2018-10-05T09:28:16.074Z,24.35
2018-10-05T09:30:42.881Z,24.39
2018-10-05T09:33:09.549Z,24.40
2018-10-05T09:35:36.272Z,24.41
2018-10-05T09:38:02.905Z,24.38
2018-10-05T09:40:29.629Z,24.34
2018-10-05T09:42:57.660Z,24.42
2018-10-05T09:45:23.185Z,24.60
2018-10-05T09:47:49.887Z,24.53
2018-10-05T09:50:19.549Z,24.55
2018-10-05T09:52:46.248Z,24.50
2018-10-05T09:55:12.950Z,24.52
2018-10-05T09:57:41.169Z,24.50
2018-10-05T10:00:06.352Z,24.54
2018-10-05T10:02:33.054Z,24.56
2018-10-05T10:04:59.767Z,24.76
2018-10-05T10:07:26.456Z,24.79
2018-10-05T10:09:53.186Z,24.72
2018-10-05T10:12:19.867Z,24.69
2018-10-05T10:14:46.804Z,24.64
2018-10-05T10:17:13.513Z,24.66
2018-10-05T10:19:40.353Z,24.71
2018-10-05T10:22:07.143Z,24.79
2018-10-05T10:24:33.813Z,24.77
2018-10-05T10:27:00.456Z,24.85
2018-10-05T10:29:27.428Z,24.77
2018-10-05T10:31:54.182Z,24.84
2018-10-05T10:34:21.015Z,24.91
2018-10-05T10:36:47.769Z,24.91
2018-10-05T10:39:14.525Z,24.96
2018-10-05T10:41:44.826Z,24.95
2018-10-05T10:44:11.474Z,25.05
2018-10-05T10:46:40.361Z,25.06
2018-10-05T10:49:05.655Z,25.04
2018-10-05T10:51:32.414Z,24.98
2018-10-05T10:53:59.213Z,25.01
2018-10-05T10:56:25.979Z,25.00
2018-10-05T10:58:52.623Z,25.08
2018-10-05T11:01:19.423Z,25.09
2018-10-05T11:03:46.104Z,25.09
2018-10-05T11:06:14.099Z,25.08
2018-10-05T11:08:40.635Z,25.07
2018-10-05T11:11:07.484Z,25.08
2018-10-05T11:13:34.349Z,25.11
2018-10-05T11:16:01.014Z,25.14
2018-10-05T11:18:27.755Z,25.15
2018-10-05T11:20:54.497Z,25.16
2018-10-05T11:23:24.266Z,25.24
2018-10-05T11:25:50.759Z,25.15
2018-10-05T11:28:17.416Z,25.18
2018-10-05T11:30:45.322Z,25.22
2018-10-05T11:33:12.055Z,25.29
2018-10-05T11:35:38.784Z,25.23
2018-10-05T11:38:05.544Z,25.29
2018-10-05T11:40:35.525Z,25.23
2018-10-05T11:43:02.146Z,25.22
2018-10-05T11:45:28.937Z,25.33
2018-10-05T11:47:55.668Z,25.39
2018-10-05T11:50:23.430Z,25.32
2018-10-05T11:52:51.454Z,25.26
2018-10-05T11:55:16.971Z,25.17
2018-10-05T11:57:43.770Z,25.12
2018-10-05T12:00:11.125Z,25.16
2018-10-05T12:02:37.947Z,25.19
2018-10-05T12:05:05.043Z,25.18
2018-10-05T12:07:31.647Z,25.19
2018-10-05T12:09:58.298Z,25.26
2018-10-05T12:12:25.010Z,25.22
2018-10-05T12:14:51.710Z,25.27
2018-10-05T12:17:18.416Z,25.28
2018-10-05T12:19:45.156Z,25.25
2018-10-05T12:22:11.832Z,25.28
2018-10-05T12:24:38.631Z,25.26
2018-10-05T12:27:05.250Z,25.27
2018-10-05T12:29:32.014Z,25.30
2018-10-05T12:31:58.703Z,25.30
2018-10-05T12:34:25.346Z,25.31
2018-10-05T12:36:52.069Z,25.32
2018-10-05T12:39:18.725Z,25.30
2018-10-05T12:41:47.556Z,25.34
2018-10-05T12:44:14.160Z,25.32
2018-10-05T12:46:40.837Z,25.36
2018-10-05T12:49:07.545Z,25.36
2018-10-05T12:51:34.517Z,25.48
2018-10-05T12:54:04.286Z,25.38
2018-10-05T12:56:30.930Z,25.37
2018-10-05T12:58:57.662Z,25.36
2018-10-05T13:01:24.367Z,25.41
2018-10-05T13:03:51.018Z,25.44
2018-10-05T13:06:19.817Z,25.37
2018-10-05T13:08:44.465Z,25.35
2018-10-05T13:11:11.126Z,25.38
2018-10-05T13:13:42.167Z,25.41
2018-10-05T13:16:08.481Z,25.46
2018-10-05T13:18:35.282Z,25.52
2018-10-05T13:21:01.986Z,25.43
2018-10-05T13:23:29.270Z,25.50
2018-10-05T13:25:55.867Z,25.41
2018-10-05T13:28:22.704Z,25.43
2018-10-05T13:30:49.374Z,25.45
2018-10-05T13:33:16.043Z,25.53
2018-10-05T13:35:42.803Z,25.53
2018-10-05T13:38:09.513Z,25.54
2018-10-05T13:40:36.246Z,25.45
2018-10-05T13:43:02.947Z,25.48
2018-10-05T13:45:29.662Z,25.46
2018-10-05T13:47:56.321Z,25.41
2018-10-05T13:50:25.915Z,25.40
2018-10-05T13:52:52.566Z,25.38
2018-10-05T13:55:19.233Z,25.36
2018-10-05T13:57:45.992Z,25.35
2018-10-05T14:00:14.524Z,25.28
2018-10-05T14:02:42.382Z,25.25
2018-10-05T14:05:09.207Z,25.23
2018-10-05T14:07:35.913Z,25.30
2018-10-05T14:10:02.558Z,25.24
2018-10-05T14:12:29.203Z,25.28
2018-10-05T14:14:55.945Z,25.29
2018-10-05T14:17:22.614Z,25.31
2018-10-05T14:19:49.280Z,25.35
2018-10-05T14:22:15.934Z,25.32
2018-10-05T14:24:42.730Z,25.29
2018-10-05T14:27:09.505Z,25.32
2018-10-05T14:29:36.173Z,25.32
2018-10-05T14:32:02.815Z,25.37
2018-10-05T14:34:29.578Z,25.30
2018-10-05T14:36:56.248Z,25.21
2018-10-05T14:39:22.955Z,25.18
2018-10-05T14:41:49.817Z,25.10
2018-10-05T14:44:18.602Z,25.21
2018-10-05T14:46:43.030Z,25.14
2018-10-05T14:49:09.699Z,25.17
2018-10-05T14:51:36.459Z,25.24
2018-10-05T14:54:03.068Z,25.12
2018-10-05T14:56:29.766Z,25.18
2018-10-05T14:58:56.383Z,25.13
2018-10-05T15:01:23.063Z,25.12
2018-10-05T15:03:52.308Z,25.17
2018-10-05T15:06:18.961Z,25.04
2018-10-05T15:08:45.605Z,24.99
2018-10-05T15:11:12.368Z,25.08
2018-10-05T15:13:41.538Z,25.07
2018-10-05T15:16:08.238Z,25.05
2018-10-05T15:18:34.887Z,24.92
2018-10-05T15:21:01.537Z,25.00
2018-10-05T15:23:28.327Z,25.13
2018-10-05T15:25:55.026Z,24.97
2018-10-05T15:28:21.695Z,24.98
2018-10-05T15:30:48.367Z,24.92
2018-10-05T15:33:15.103Z,24.90
2018-10-05T15:35:41.741Z,24.89
2018-10-05T15:38:08.457Z,24.83
2018-10-05T15:40:35.159Z,24.84
2018-10-05T15:43:01.828Z,24.86
2018-10-05T15:45:28.505Z,24.75
2018-10-05T15:47:55.137Z,24.68
2018-10-05T15:50:21.786Z,24.68
2018-10-05T15:52:48.435Z,24.64
2018-10-05T15:55:15.065Z,24.64
2018-10-05T15:57:41.712Z,24.62
2018-10-05T16:00:08.363Z,24.55
2018-10-05T16:02:35.037Z,24.50
2018-10-05T16:05:01.651Z,24.47
2018-10-05T16:07:28.330Z,24.45
2018-10-05T16:09:54.946Z,24.63
2018-10-05T16:12:23.776Z,24.43
2018-10-05T16:14:49.585Z,24.39
2018-10-05T16:17:14.901Z,24.32
2018-10-05T16:19:41.627Z,24.31
2018-10-05T16:22:08.273Z,24.28
2018-10-05T16:24:34.981Z,24.27
2018-10-05T16:27:01.567Z,24.24
2018-10-05T16:29:28.242Z,24.23
2018-10-05T16:31:54.865Z,24.26
2018-10-05T16:34:22.897Z,24.18
2018-10-05T16:36:48.147Z,24.16
2018-10-05T16:39:14.802Z,24.18
2018-10-05T16:41:41.438Z,24.13
2018-10-05T16:44:08.082Z,24.16
2018-10-05T16:46:34.743Z,24.12
2018-10-05T16:49:01.382Z,24.09
2018-10-05T16:51:28.034Z,24.08
2018-10-05T16:53:54.735Z,24.05
2018-10-05T16:56:21.440Z,24.21
2018-10-05T16:58:56.446Z,24.24
2018-10-05T17:01:26.058Z,24.08
2018-10-05T17:03:52.790Z,24.04
2018-10-05T17:06:19.393Z,24.02
2018-10-05T17:08:46.058Z,24.04
2018-10-05T17:11:12.762Z,24.02
2018-10-05T17:13:39.418Z,23.97
2018-10-05T17:16:06.074Z,24.02
2018-10-05T17:18:32.758Z,23.97
2018-10-05T17:20:59.464Z,23.95
2018-10-05T17:23:26.108Z,23.96
2018-10-05T17:25:52.747Z,23.91
2018-10-05T17:28:19.501Z,23.90
2018-10-05T17:30:51.090Z,23.81
2018-10-05T17:33:17.745Z,23.84
2018-10-05T17:35:44.416Z,23.85
2018-10-05T17:38:11.206Z,23.87
2018-10-05T17:40:37.944Z,23.87
2018-10-05T17:43:04.635Z,23.84
2018-10-05T17:45:31.239Z,23.81
2018-10-05T17:48:02.717Z,23.83
2018-10-05T17:50:27.565Z,23.84
2018-10-05T17:52:54.223Z,23.79
2018-10-05T17:55:20.970Z,23.76
2018-10-05T17:57:47.615Z,23.77
2018-10-05T18:00:14.342Z,23.75
2018-10-05T18:02:42.299Z,23.81
2018-10-05T18:05:07.776Z,23.74
2018-10-05T18:07:34.418Z,23.72
2018-10-05T18:10:01.065Z,23.69
2018-10-05T18:12:27.727Z,23.72
2018-10-05T18:14:54.447Z,23.73
2018-10-05T18:17:21.042Z,23.68
2018-10-05T18:19:47.759Z,23.70
2018-10-05T18:22:14.427Z,23.65
2018-10-05T18:24:41.172Z,23.65
2018-10-05T18:27:07.819Z,23.64
2018-10-05T18:29:34.494Z,23.62
2018-10-05T18:32:01.244Z,23.60
2018-10-05T18:34:27.898Z,23.56
2018-10-05T18:36:54.551Z,23.58
2018-10-05T18:39:21.244Z,23.59
2018-10-05T18:41:47.907Z,23.58
2018-10-05T18:44:14.592Z,23.55
2018-10-05T18:46:41.194Z,23.51
2018-10-05T18:49:07.894Z,23.51
2018-10-05T18:51:37.878Z,23.50
2018-10-05T18:54:05.957Z,23.52
2018-10-05T18:56:31.315Z,23.49
2018-10-05T18:58:57.987Z,23.47
2018-10-05T19:01:24.666Z,23.45
2018-10-05T19:03:51.373Z,23.46
2018-10-05T19:06:18.083Z,23.46
2018-10-05T19:08:44.785Z,23.39
2018-10-05T19:11:11.427Z,23.43
2018-10-05T19:13:39.472Z,23.42
2018-10-05T19:16:08.007Z,23.41
2018-10-05T19:18:34.713Z,23.39
2018-10-05T19:21:01.360Z,23.37
2018-10-05T19:23:28.060Z,23.37
2018-10-05T19:25:54.705Z,23.38
2018-10-05T19:28:21.727Z,23.39
2018-10-05T19:30:48.467Z,23.36
2018-10-05T19:33:15.104Z,23.35
2018-10-05T19:35:43.940Z,23.36
2018-10-05T19:38:10.611Z,23.35
2018-10-05T19:40:37.288Z,23.34
2018-10-05T19:43:06.927Z,23.29
2018-10-05T19:45:33.663Z,23.31
2018-10-05T19:48:00.313Z,23.31
2018-10-05T19:50:26.954Z,23.28
2018-10-05T19:52:53.638Z,23.28
2018-10-05T19:55:20.256Z,23.28
2018-10-05T19:57:46.922Z,23.23
2018-10-05T20:00:13.556Z,23.20
2018-10-05T20:02:40.200Z,23.21
2018-10-05T20:05:06.903Z,23.21
2018-10-05T20:07:33.643Z,23.20
2018-10-05T20:10:00.327Z,23.19
2018-10-05T20:12:26.979Z,23.17
2018-10-05T20:14:53.626Z,23.14
2018-10-05T20:17:20.273Z,23.16
2018-10-05T20:19:46.939Z,23.14
2018-10-05T20:22:13.574Z,23.15
2018-10-05T20:24:40.234Z,23.14
2018-10-05T20:27:06.873Z,23.13
2018-10-05T20:29:33.527Z,23.12
2018-10-05T20:32:00.165Z,23.12
2018-10-05T20:34:26.820Z,23.13
2018-10-05T20:36:53.618Z,23.09
2018-10-05T20:39:20.112Z,23.05
2018-10-05T20:41:47.989Z,23.07
2018-10-05T20:44:13.445Z,23.06
2018-10-05T20:46:40.151Z,23.04
2018-10-05T20:49:06.954Z,23.07
2018-10-05T20:51:33.705Z,23.04
2018-10-05T20:54:00.340Z,23.00
2018-10-05T20:56:27.022Z,23.00
2018-10-05T20:58:53.783Z,22.99
2018-10-05T21:01:20.508Z,22.99
2018-10-05T21:03:47.230Z,23.01
2018-10-05T21:06:13.907Z,23.01
2018-10-05T21:08:40.646Z,23.03
2018-10-05T21:11:07.319Z,22.96
2018-10-05T21:13:34.061Z,22.97
2018-10-05T21:16:00.821Z,22.97
2018-10-05T21:18:27.608Z,22.97
2018-10-05T21:20:57.504Z,22.97
2018-10-05T21:23:24.239Z,22.94
2018-10-05T21:25:50.922Z,22.93
2018-10-05T21:28:17.592Z,22.89
2018-10-05T21:30:44.580Z,22.91
2018-10-05T21:33:11.347Z,22.88
2018-10-05T21:35:37.996Z,22.90
2018-10-05T21:38:04.673Z,22.89
2018-10-05T21:40:31.990Z,22.89
2018-10-05T21:42:58.670Z,22.88
2018-10-05T21:45:25.406Z,22.86
2018-10-05T21:47:52.094Z,22.86
2018-10-05T21:50:18.857Z,22.81
2018-10-05T21:52:45.543Z,22.81
2018-10-05T21:55:12.255Z,22.80
2018-10-05T21:57:38.963Z,22.80
2018-10-05T22:00:05.639Z,22.80
2018-10-05T22:02:32.396Z,22.76
2018-10-05T22:04:59.172Z,22.81
2018-10-05T22:07:25.910Z,22.77
2018-10-05T22:09:52.589Z,22.76
2018-10-05T22:12:19.453Z,22.73
2018-10-05T22:14:46.094Z,22.75
2018-10-05T22:17:12.847Z,22.75
2018-10-05T22:19:39.592Z,22.75
2018-10-05T22:22:06.196Z,22.74
2018-10-05T22:24:32.926Z,22.71
2018-10-05T22:26:59.628Z,22.72
2018-10-05T22:29:26.374Z,22.71
2018-10-05T22:31:53.092Z,22.68
2018-10-05T22:34:19.813Z,22.71
2018-10-05T22:36:46.545Z,22.69
2018-10-05T22:39:13.328Z,22.70
2018-10-05T22:41:40.007Z,22.66
2018-10-05T22:44:06.776Z,22.69
2018-10-05T22:46:33.544Z,22.68
2018-10-05T22:49:00.209Z,22.65
2018-10-05T22:51:26.948Z,22.66
2018-10-05T22:53:53.608Z,22.63
2018-10-05T22:56:20.348Z,22.64
2018-10-05T22:58:47.140Z,22.64
2018-10-05T23:01:13.878Z,22.60
2018-10-05T23:03:40.549Z,22.58
2018-10-05T23:06:10.227Z,22.58
2018-10-05T23:08:38.320Z,22.57
2018-10-05T23:11:03.681Z,22.55
2018-10-05T23:13:30.368Z,22.56
2018-10-05T23:15:57.046Z,22.56
2018-10-05T23:18:23.804Z,22.53
2018-10-05T23:20:50.514Z,22.55
2018-10-05T23:23:17.284Z,22.54
2018-10-05T23:25:43.972Z,22.53
2018-10-05T23:28:10.697Z,22.50
2018-10-05T23:30:37.371Z,22.50
2018-10-05T23:33:04.111Z,22.46
2018-10-05T23:35:32.738Z,22.47
2018-10-05T23:37:59.128Z,22.47
2018-10-05T23:40:25.645Z,22.47
2018-10-05T23:42:50.970Z,22.46
2018-10-05T23:45:17.719Z,22.44
2018-10-05T23:47:44.398Z,22.43
2018-10-05T23:50:11.061Z,22.42
2018-10-05T23:52:37.834Z,22.43
2018-10-05T23:55:04.474Z,22.44
2018-10-05T23:57:31.203Z,22.41
2018-10-05T23:59:57.922Z,22.40
